sensor_id;sensor_type;location;lat;lon;timestamp;P1;durP1;ratioP1;P2;durP2;ratioP2
27333;SDS011;14817;57.104;-2.094;2023-06-24T00:00:11;2.95;;;2.17;;
27333;SDS011;14817;57.104;-2.094;2023-06-24T00:02:41;3.08;;;2.20;;
27333;SDS011;14817;57.104;-2.094;2023-06-24T00:05:11;5.22;;;2.58;;
27333;SDS011;14817;57.104;-2.094;2023-06-24T00:07:39;5.63;;;3.25;;
27333;SDS011;14817;57.104;-2.094;2023-06-24T00:10:12;4.25;;;3.28;;
27333;SDS011;14817;57.104;-2.094;2023-06-24T00:12:42;5.13;;;3.30;;
27333;SDS011;14817;57.104;-2.094;2023-06-24T00:15:09;5.55;;;2.60;;
27333;SDS011;14817;57.104;-2.094;2023-06-24T00:17:37;3.17;;;2.65;;
27333;SDS011;14817;57.104;-2.094;2023-06-24T00:20:04;4.53;;;3.55;;
27333;SDS011;14817;57.104;-2.094;2023-06-24T00:22:36;6.20;;;3.90;;
27333;SDS011;14817;57.104;-2.094;2023-06-24T00:25:11;8.55;;;4.30;;
27333;SDS011;14817;57.104;-2.094;2023-06-24T00:27:38;7.88;;;4.00;;
27333;SDS011;14817;57.104;-2.094;2023-06-24T00:30:05;8.52;;;4.35;;
27333;SDS011;14817;57.104;-2.094;2023-06-24T00:32:34;10.60;;;4.72;;
27333;SDS011;14817;57.104;-2.094;2023-06-24T00:35:02;9.85;;;5.28;;
27333;SDS011;14817;57.104;-2.094;2023-06-24T00:37:30;10.32;;;5.30;;
27333;SDS011;14817;57.104;-2.094;2023-06-24T00:39:57;7.85;;;5.15;;
27333;SDS011;14817;57.104;-2.094;2023-06-24T00:42:23;11.32;;;6.28;;
27333;SDS011;14817;57.104;-2.094;2023-06-24T00:44:50;8.48;;;6.00;;
27333;SDS011;14817;57.104;-2.094;2023-06-24T00:47:17;10.82;;;7.78;;
27333;SDS011;14817;57.104;-2.094;2023-06-24T00:49:45;7.63;;;5.47;;
27333;SDS011;14817;57.104;-2.094;2023-06-24T00:52:12;11.25;;;7.45;;
27333;SDS011;14817;57.104;-2.094;2023-06-24T00:54:43;11.70;;;6.10;;
27333;SDS011;14817;57.104;-2.094;2023-06-24T00:57:10;9.45;;;6.95;;
27333;SDS011;14817;57.104;-2.094;2023-06-24T00:59:38;11.52;;;7.80;;
27333;SDS011;14817;57.104;-2.094;2023-06-24T01:02:07;10.05;;;6.20;;
27333;SDS011;14817;57.104;-2.094;2023-06-24T01:04:34;13.35;;;7.40;;
27333;SDS011;14817;57.104;-2.094;2023-06-24T01:07:02;8.70;;;6.60;;
27333;SDS011;14817;57.104;-2.094;2023-06-24T01:09:31;12.07;;;7.45;;
27333;SDS011;14817;57.104;-2.094;2023-06-24T01:11:58;12.05;;;6.75;;
27333;SDS011;14817;57.104;-2.094;2023-06-24T01:14:25;13.63;;;7.25;;
27333;SDS011;14817;57.104;-2.094;2023-06-24T01:32:31;10.98;;;7.57;;
27333;SDS011;14817;57.104;-2.094;2023-06-24T01:35:07;8.50;;;6.93;;
27333;SDS011;14817;57.104;-2.094;2023-06-24T01:37:42;10.30;;;7.72;;
27333;SDS011;14817;57.104;-2.094;2023-06-24T01:40:15;7.95;;;6.18;;
27333;SDS011;14817;57.104;-2.094;2023-06-24T01:42:59;8.05;;;7.25;;
27333;SDS011;14817;57.104;-2.094;2023-06-24T01:45:36;7.23;;;5.70;;
27333;SDS011;14817;57.104;-2.094;2023-06-24T01:51:12;8.65;;;3.97;;
27333;SDS011;14817;57.104;-2.094;2023-06-24T01:53:48;5.30;;;3.55;;
27333;SDS011;14817;57.104;-2.094;2023-06-24T01:56:18;4.60;;;4.20;;
27333;SDS011;14817;57.104;-2.094;2023-06-24T01:58:48;7.18;;;5.22;;
27333;SDS011;14817;57.104;-2.094;2023-06-24T02:01:18;6.72;;;5.15;;
27333;SDS011;14817;57.104;-2.094;2023-06-24T02:03:46;6.80;;;4.97;;
27333;SDS011;14817;57.104;-2.094;2023-06-24T02:06:14;7.50;;;6.22;;
27333;SDS011;14817;57.104;-2.094;2023-06-24T02:08:45;5.72;;;5.13;;
27333;SDS011;14817;57.104;-2.094;2023-06-24T02:11:14;7.25;;;6.55;;
27333;SDS011;14817;57.104;-2.094;2023-06-24T02:13:43;8.30;;;6.15;;
27333;SDS011;14817;57.104;-2.094;2023-06-24T02:18:42;9.05;;;6.40;;
27333;SDS011;14817;57.104;-2.094;2023-06-24T02:21:10;8.48;;;6.57;;
27333;SDS011;14817;57.104;-2.094;2023-06-24T02:23:39;9.00;;;6.40;;
27333;SDS011;14817;57.104;-2.094;2023-06-24T02:26:06;7.10;;;6.18;;
27333;SDS011;14817;57.104;-2.094;2023-06-24T02:28:35;9.05;;;7.00;;
27333;SDS011;14817;57.104;-2.094;2023-06-24T02:31:04;7.30;;;5.40;;
27333;SDS011;14817;57.104;-2.094;2023-06-24T02:33:32;8.45;;;5.15;;
27333;SDS011;14817;57.104;-2.094;2023-06-24T02:35:59;7.97;;;5.05;;
27333;SDS011;14817;57.104;-2.094;2023-06-24T02:38:27;8.13;;;5.25;;
27333;SDS011;14817;57.104;-2.094;2023-06-24T02:40:54;6.57;;;5.22;;
27333;SDS011;14817;57.104;-2.094;2023-06-24T02:43:23;10.32;;;5.35;;
27333;SDS011;14817;57.104;-2.094;2023-06-24T02:45:50;7.75;;;4.72;;
27333;SDS011;14817;57.104;-2.094;2023-06-24T02:48:17;7.22;;;5.32;;
27333;SDS011;14817;57.104;-2.094;2023-06-24T02:50:47;11.43;;;6.95;;
27333;SDS011;14817;57.104;-2.094;2023-06-24T02:53:15;9.38;;;7.05;;
27333;SDS011;14817;57.104;-2.094;2023-06-24T02:55:43;8.70;;;7.55;;
27333;SDS011;14817;57.104;-2.094;2023-06-24T02:58:12;11.10;;;7.78;;
27333;SDS011;14817;57.104;-2.094;2023-06-24T03:00:57;9.95;;;7.15;;
27333;SDS011;14817;57.104;-2.094;2023-06-24T03:03:31;10.45;;;6.88;;
27333;SDS011;14817;57.104;-2.094;2023-06-24T03:05:59;8.18;;;6.20;;
27333;SDS011;14817;57.104;-2.094;2023-06-24T03:08:29;8.95;;;6.47;;
27333;SDS011;14817;57.104;-2.094;2023-06-24T03:10:57;12.88;;;7.55;;
27333;SDS011;14817;57.104;-2.094;2023-06-24T03:13:28;7.25;;;5.80;;
27333;SDS011;14817;57.104;-2.094;2023-06-24T03:16:05;10.98;;;6.63;;
27333;SDS011;14817;57.104;-2.094;2023-06-24T03:19:05;9.25;;;8.07;;
27333;SDS011;14817;57.104;-2.094;2023-06-24T03:21:32;9.98;;;7.13;;
27333;SDS011;14817;57.104;-2.094;2023-06-24T03:24:10;7.35;;;6.50;;
27333;SDS011;14817;57.104;-2.094;2023-06-24T03:26:39;7.60;;;6.80;;
27333;SDS011;14817;57.104;-2.094;2023-06-24T03:29:12;10.23;;;5.63;;
27333;SDS011;14817;57.104;-2.094;2023-06-24T03:32:01;7.35;;;5.80;;
27333;SDS011;14817;57.104;-2.094;2023-06-24T03:34:29;6.63;;;5.85;;
27333;SDS011;14817;57.104;-2.094;2023-06-24T03:36:56;7.38;;;5.93;;
27333;SDS011;14817;57.104;-2.094;2023-06-24T03:39:24;8.52;;;6.60;;
27333;SDS011;14817;57.104;-2.094;2023-06-24T03:41:52;6.30;;;5.60;;
27333;SDS011;14817;57.104;-2.094;2023-06-24T03:44:18;8.35;;;5.60;;
27333;SDS011;14817;57.104;-2.094;2023-06-24T03:46:46;8.13;;;4.28;;
27333;SDS011;14817;57.104;-2.094;2023-06-24T03:49:13;7.72;;;4.68;;
27333;SDS011;14817;57.104;-2.094;2023-06-24T03:51:41;7.43;;;5.30;;
27333;SDS011;14817;57.104;-2.094;2023-06-24T03:54:08;6.90;;;4.93;;
27333;SDS011;14817;57.104;-2.094;2023-06-24T03:56:35;6.95;;;5.72;;
27333;SDS011;14817;57.104;-2.094;2023-06-24T03:59:02;7.60;;;5.38;;
27333;SDS011;14817;57.104;-2.094;2023-06-24T04:01:32;6.32;;;5.72;;
27333;SDS011;14817;57.104;-2.094;2023-06-24T04:03:59;6.55;;;5.70;;
27333;SDS011;14817;57.104;-2.094;2023-06-24T04:06:26;10.30;;;4.57;;
27333;SDS011;14817;57.104;-2.094;2023-06-24T04:08:53;5.93;;;5.32;;
27333;SDS011;14817;57.104;-2.094;2023-06-24T04:11:21;7.63;;;5.75;;
27333;SDS011;14817;57.104;-2.094;2023-06-24T04:13:48;7.22;;;5.97;;
27333;SDS011;14817;57.104;-2.094;2023-06-24T04:16:15;8.02;;;6.10;;
27333;SDS011;14817;57.104;-2.094;2023-06-24T04:18:43;5.60;;;4.40;;
27333;SDS011;14817;57.104;-2.094;2023-06-24T04:21:10;7.07;;;4.60;;
27333;SDS011;14817;57.104;-2.094;2023-06-24T04:23:37;7.05;;;5.35;;
27333;SDS011;14817;57.104;-2.094;2023-06-24T04:26:03;10.70;;;5.78;;
27333;SDS011;14817;57.104;-2.094;2023-06-24T04:28:30;5.47;;;4.38;;
27333;SDS011;14817;57.104;-2.094;2023-06-24T04:30:59;4.53;;;3.65;;
27333;SDS011;14817;57.104;-2.094;2023-06-24T04:33:26;5.28;;;3.88;;
27333;SDS011;14817;57.104;-2.094;2023-06-24T04:35:53;5.70;;;3.40;;
27333;SDS011;14817;57.104;-2.094;2023-06-24T04:38:23;3.10;;;2.70;;
27333;SDS011;14817;57.104;-2.094;2023-06-24T04:40:50;3.35;;;2.60;;
27333;SDS011;14817;57.104;-2.094;2023-06-24T04:43:17;3.90;;;2.38;;
27333;SDS011;14817;57.104;-2.094;2023-06-24T04:45:44;3.90;;;2.35;;
27333;SDS011;14817;57.104;-2.094;2023-06-24T04:48:11;2.08;;;1.88;;
27333;SDS011;14817;57.104;-2.094;2023-06-24T04:50:38;2.05;;;1.80;;
27333;SDS011;14817;57.104;-2.094;2023-06-24T04:53:05;2.25;;;1.60;;
27333;SDS011;14817;57.104;-2.094;2023-06-24T04:55:32;4.13;;;2.05;;
27333;SDS011;14817;57.104;-2.094;2023-06-24T04:57:59;2.20;;;1.60;;
27333;SDS011;14817;57.104;-2.094;2023-06-24T05:00:26;1.95;;;1.50;;
27333;SDS011;14817;57.104;-2.094;2023-06-24T05:02:53;4.32;;;1.95;;
27333;SDS011;14817;57.104;-2.094;2023-06-24T05:05:20;2.13;;;1.52;;
27333;SDS011;14817;57.104;-2.094;2023-06-24T05:07:47;1.75;;;1.45;;
27333;SDS011;14817;57.104;-2.094;2023-06-24T05:10:14;2.30;;;1.30;;
27333;SDS011;14817;57.104;-2.094;2023-06-24T05:12:41;1.45;;;1.35;;
27333;SDS011;14817;57.104;-2.094;2023-06-24T05:15:08;1.80;;;1.23;;
27333;SDS011;14817;57.104;-2.094;2023-06-24T05:17:36;3.75;;;1.80;;
27333;SDS011;14817;57.104;-2.094;2023-06-24T05:20:03;2.22;;;1.50;;
27333;SDS011;14817;57.104;-2.094;2023-06-24T05:22:30;1.75;;;1.55;;
27333;SDS011;14817;57.104;-2.094;2023-06-24T05:24:57;3.08;;;1.98;;
27333;SDS011;14817;57.104;-2.094;2023-06-24T05:27:24;2.67;;;2.10;;
27333;SDS011;14817;57.104;-2.094;2023-06-24T05:29:51;1.80;;;1.50;;
27333;SDS011;14817;57.104;-2.094;2023-06-24T05:32:18;2.15;;;1.73;;
27333;SDS011;14817;57.104;-2.094;2023-06-24T05:34:46;2.53;;;1.40;;
27333;SDS011;14817;57.104;-2.094;2023-06-24T05:37:13;2.80;;;1.70;;
27333;SDS011;14817;57.104;-2.094;2023-06-24T05:39:41;3.40;;;1.60;;
27333;SDS011;14817;57.104;-2.094;2023-06-24T05:42:08;2.17;;;1.10;;
27333;SDS011;14817;57.104;-2.094;2023-06-24T05:44:35;3.50;;;1.38;;
27333;SDS011;14817;57.104;-2.094;2023-06-24T05:47:01;1.58;;;1.33;;
27333;SDS011;14817;57.104;-2.094;2023-06-24T05:49:28;1.95;;;1.30;;
27333;SDS011;14817;57.104;-2.094;2023-06-24T05:51:56;3.15;;;1.80;;
27333;SDS011;14817;57.104;-2.094;2023-06-24T05:54:23;2.70;;;1.60;;
27333;SDS011;14817;57.104;-2.094;2023-06-24T05:56:50;1.92;;;1.20;;
27333;SDS011;14817;57.104;-2.094;2023-06-24T05:59:17;5.40;;;3.25;;
27333;SDS011;14817;57.104;-2.094;2023-06-24T06:01:44;6.65;;;2.63;;
27333;SDS011;14817;57.104;-2.094;2023-06-24T06:04:11;6.82;;;2.97;;
27333;SDS011;14817;57.104;-2.094;2023-06-24T06:06:37;5.82;;;3.70;;
27333;SDS011;14817;57.104;-2.094;2023-06-24T06:09:05;5.30;;;2.80;;
27333;SDS011;14817;57.104;-2.094;2023-06-24T06:11:32;6.45;;;2.90;;
27333;SDS011;14817;57.104;-2.094;2023-06-24T06:13:59;5.68;;;3.13;;
27333;SDS011;14817;57.104;-2.094;2023-06-24T06:16:26;5.75;;;2.28;;
27333;SDS011;14817;57.104;-2.094;2023-06-24T06:18:54;4.63;;;1.92;;
27333;SDS011;14817;57.104;-2.094;2023-06-24T06:21:21;5.68;;;2.45;;
27333;SDS011;14817;57.104;-2.094;2023-06-24T06:23:48;6.65;;;2.85;;
27333;SDS011;14817;57.104;-2.094;2023-06-24T06:26:15;9.05;;;2.63;;
27333;SDS011;14817;57.104;-2.094;2023-06-24T06:28:42;4.90;;;2.20;;
27333;SDS011;14817;57.104;-2.094;2023-06-24T06:31:09;4.95;;;2.10;;
27333;SDS011;14817;57.104;-2.094;2023-06-24T06:33:36;4.20;;;1.83;;
27333;SDS011;14817;57.104;-2.094;2023-06-24T06:36:03;5.35;;;2.20;;
27333;SDS011;14817;57.104;-2.094;2023-06-24T06:38:30;3.25;;;1.77;;
27333;SDS011;14817;57.104;-2.094;2023-06-24T06:40:58;4.95;;;2.13;;
27333;SDS011;14817;57.104;-2.094;2023-06-24T06:43:25;2.45;;;1.52;;
27333;SDS011;14817;57.104;-2.094;2023-06-24T06:45:52;7.10;;;2.92;;
27333;SDS011;14817;57.104;-2.094;2023-06-24T06:48:19;4.05;;;1.98;;
27333;SDS011;14817;57.104;-2.094;2023-06-24T06:50:46;4.10;;;1.55;;
27333;SDS011;14817;57.104;-2.094;2023-06-24T06:53:12;3.08;;;1.77;;
27333;SDS011;14817;57.104;-2.094;2023-06-24T06:55:39;3.95;;;1.90;;
27333;SDS011;14817;57.104;-2.094;2023-06-24T06:58:06;4.22;;;1.58;;
27333;SDS011;14817;57.104;-2.094;2023-06-24T07:00:33;4.70;;;2.20;;
27333;SDS011;14817;57.104;-2.094;2023-06-24T07:03:00;2.92;;;1.75;;
27333;SDS011;14817;57.104;-2.094;2023-06-24T07:05:27;2.95;;;1.80;;
27333;SDS011;14817;57.104;-2.094;2023-06-24T07:07:54;3.97;;;1.60;;
27333;SDS011;14817;57.104;-2.094;2023-06-24T07:10:21;3.83;;;1.63;;
27333;SDS011;14817;57.104;-2.094;2023-06-24T07:12:47;3.05;;;1.60;;
27333;SDS011;14817;57.104;-2.094;2023-06-24T07:15:14;5.30;;;2.10;;
27333;SDS011;14817;57.104;-2.094;2023-06-24T07:17:46;4.30;;;1.98;;
27333;SDS011;14817;57.104;-2.094;2023-06-24T07:20:13;7.05;;;1.80;;
27333;SDS011;14817;57.104;-2.094;2023-06-24T07:22:39;3.75;;;1.85;;
27333;SDS011;14817;57.104;-2.094;2023-06-24T07:25:06;3.78;;;1.67;;
27333;SDS011;14817;57.104;-2.094;2023-06-24T07:27:33;3.47;;;2.10;;
27333;SDS011;14817;57.104;-2.094;2023-06-24T07:30:00;4.00;;;2.03;;
27333;SDS011;14817;57.104;-2.094;2023-06-24T07:32:27;5.13;;;2.25;;
27333;SDS011;14817;57.104;-2.094;2023-06-24T07:34:54;6.18;;;2.03;;
27333;SDS011;14817;57.104;-2.094;2023-06-24T07:37:21;4.75;;;2.28;;
27333;SDS011;14817;57.104;-2.094;2023-06-24T07:39:50;6.80;;;2.25;;
27333;SDS011;14817;57.104;-2.094;2023-06-24T07:42:18;4.78;;;2.28;;
27333;SDS011;14817;57.104;-2.094;2023-06-24T07:44:48;4.30;;;2.10;;
27333;SDS011;14817;57.104;-2.094;2023-06-24T07:47:16;5.72;;;2.53;;
27333;SDS011;14817;57.104;-2.094;2023-06-24T07:49:43;5.10;;;2.33;;
27333;SDS011;14817;57.104;-2.094;2023-06-24T07:52:10;5.43;;;2.03;;
27333;SDS011;14817;57.104;-2.094;2023-06-24T07:54:37;5.40;;;2.10;;
27333;SDS011;14817;57.104;-2.094;2023-06-24T07:57:04;2.83;;;2.00;;
27333;SDS011;14817;57.104;-2.094;2023-06-24T07:59:31;4.85;;;2.42;;
27333;SDS011;14817;57.104;-2.094;2023-06-24T08:01:57;4.15;;;2.67;;
27333;SDS011;14817;57.104;-2.094;2023-06-24T08:04:24;3.63;;;2.40;;
27333;SDS011;14817;57.104;-2.094;2023-06-24T08:06:51;4.90;;;2.22;;
27333;SDS011;14817;57.104;-2.094;2023-06-24T08:09:18;3.55;;;1.90;;
27333;SDS011;14817;57.104;-2.094;2023-06-24T08:11:45;4.55;;;2.00;;
27333;SDS011;14817;57.104;-2.094;2023-06-24T08:14:12;4.90;;;2.47;;
27333;SDS011;14817;57.104;-2.094;2023-06-24T08:16:39;4.93;;;2.60;;
27333;SDS011;14817;57.104;-2.094;2023-06-24T08:19:06;6.63;;;2.75;;
27333;SDS011;14817;57.104;-2.094;2023-06-24T08:21:33;7.18;;;3.00;;
27333;SDS011;14817;57.104;-2.094;2023-06-24T08:24:01;6.68;;;2.22;;
27333;SDS011;14817;57.104;-2.094;2023-06-24T08:26:27;3.20;;;2.10;;
27333;SDS011;14817;57.104;-2.094;2023-06-24T08:28:54;5.53;;;2.65;;
27333;SDS011;14817;57.104;-2.094;2023-06-24T08:31:21;3.70;;;2.40;;
27333;SDS011;14817;57.104;-2.094;2023-06-24T08:33:54;4.70;;;2.40;;
27333;SDS011;14817;57.104;-2.094;2023-06-24T08:36:22;5.47;;;2.63;;
27333;SDS011;14817;57.104;-2.094;2023-06-24T08:38:52;4.03;;;2.75;;
27333;SDS011;14817;57.104;-2.094;2023-06-24T08:41:19;6.85;;;2.88;;
27333;SDS011;14817;57.104;-2.094;2023-06-24T08:43:46;3.60;;;2.35;;
27333;SDS011;14817;57.104;-2.094;2023-06-24T08:46:13;4.85;;;2.83;;
27333;SDS011;14817;57.104;-2.094;2023-06-24T08:48:42;5.88;;;2.67;;
27333;SDS011;14817;57.104;-2.094;2023-06-24T08:51:11;7.05;;;2.90;;
27333;SDS011;14817;57.104;-2.094;2023-06-24T08:53:42;7.55;;;2.92;;
27333;SDS011;14817;57.104;-2.094;2023-06-24T08:56:10;5.88;;;3.03;;
27333;SDS011;14817;57.104;-2.094;2023-06-24T08:58:37;2.53;;;1.92;;
27333;SDS011;14817;57.104;-2.094;2023-06-24T09:01:04;5.80;;;2.50;;
27333;SDS011;14817;57.104;-2.094;2023-06-24T09:03:32;4.55;;;2.40;;
27333;SDS011;14817;57.104;-2.094;2023-06-24T09:05:59;6.32;;;2.42;;
27333;SDS011;14817;57.104;-2.094;2023-06-24T09:08:26;3.90;;;2.22;;
27333;SDS011;14817;57.104;-2.094;2023-06-24T09:10:53;4.05;;;2.80;;
27333;SDS011;14817;57.104;-2.094;2023-06-24T09:13:27;6.38;;;2.80;;
27333;SDS011;14817;57.104;-2.094;2023-06-24T09:16:08;6.43;;;2.97;;
27333;SDS011;14817;57.104;-2.094;2023-06-24T09:18:39;5.40;;;3.20;;
27333;SDS011;14817;57.104;-2.094;2023-06-24T09:21:06;4.20;;;2.60;;
27333;SDS011;14817;57.104;-2.094;2023-06-24T09:23:39;7.28;;;2.90;;
27333;SDS011;14817;57.104;-2.094;2023-06-24T09:26:09;4.03;;;2.58;;
27333;SDS011;14817;57.104;-2.094;2023-06-24T09:28:37;5.32;;;1.80;;
27333;SDS011;14817;57.104;-2.094;2023-06-24T09:31:08;2.80;;;1.80;;
27333;SDS011;14817;57.104;-2.094;2023-06-24T09:36:13;4.82;;;2.20;;
27333;SDS011;14817;57.104;-2.094;2023-06-24T09:38:44;7.45;;;2.50;;
27333;SDS011;14817;57.104;-2.094;2023-06-24T09:41:11;5.85;;;2.80;;
27333;SDS011;14817;57.104;-2.094;2023-06-24T09:43:41;4.13;;;2.10;;
27333;SDS011;14817;57.104;-2.094;2023-06-24T09:46:10;4.70;;;2.22;;
27333;SDS011;14817;57.104;-2.094;2023-06-24T09:48:38;4.38;;;2.10;;
27333;SDS011;14817;57.104;-2.094;2023-06-24T09:51:05;4.53;;;2.17;;
27333;SDS011;14817;57.104;-2.094;2023-06-24T09:53:35;5.03;;;2.40;;
27333;SDS011;14817;57.104;-2.094;2023-06-24T09:56:03;4.38;;;2.55;;
27333;SDS011;14817;57.104;-2.094;2023-06-24T09:58:31;3.92;;;2.30;;
27333;SDS011;14817;57.104;-2.094;2023-06-24T10:01:02;7.50;;;2.55;;
27333;SDS011;14817;57.104;-2.094;2023-06-24T10:03:35;4.75;;;2.22;;
27333;SDS011;14817;57.104;-2.094;2023-06-24T10:06:04;5.50;;;2.22;;
27333;SDS011;14817;57.104;-2.094;2023-06-24T10:08:32;2.40;;;1.80;;
27333;SDS011;14817;57.104;-2.094;2023-06-24T10:11:00;5.80;;;2.63;;
27333;SDS011;14817;57.104;-2.094;2023-06-24T10:13:28;6.63;;;2.80;;
27333;SDS011;14817;57.104;-2.094;2023-06-24T10:15:56;5.32;;;2.50;;
27333;SDS011;14817;57.104;-2.094;2023-06-24T10:18:36;5.38;;;2.53;;
27333;SDS011;14817;57.104;-2.094;2023-06-24T10:21:05;7.32;;;2.72;;
27333;SDS011;14817;57.104;-2.094;2023-06-24T10:36:55;6.45;;;3.05;;
27333;SDS011;14817;57.104;-2.094;2023-06-24T10:47:43;4.78;;;2.38;;
27333;SDS011;14817;57.104;-2.094;2023-06-24T10:50:17;5.45;;;1.90;;
27333;SDS011;14817;57.104;-2.094;2023-06-24T10:52:46;5.22;;;2.08;;
27333;SDS011;14817;57.104;-2.094;2023-06-24T10:55:15;4.72;;;1.95;;
27333;SDS011;14817;57.104;-2.094;2023-06-24T10:57:44;5.80;;;1.92;;
27333;SDS011;14817;57.104;-2.094;2023-06-24T11:00:14;4.90;;;2.17;;
27333;SDS011;14817;57.104;-2.094;2023-06-24T11:02:42;4.88;;;2.00;;
27333;SDS011;14817;57.104;-2.094;2023-06-24T11:05:10;2.40;;;1.85;;
27333;SDS011;14817;57.104;-2.094;2023-06-24T11:07:38;3.92;;;1.80;;
27333;SDS011;14817;57.104;-2.094;2023-06-24T11:10:12;2.10;;;1.80;;
27333;SDS011;14817;57.104;-2.094;2023-06-24T11:12:42;5.03;;;2.63;;
27333;SDS011;14817;57.104;-2.094;2023-06-24T11:15:11;4.88;;;2.70;;
27333;SDS011;14817;57.104;-2.094;2023-06-24T11:17:40;3.75;;;2.58;;
27333;SDS011;14817;57.104;-2.094;2023-06-24T11:20:09;3.05;;;2.05;;
27333;SDS011;14817;57.104;-2.094;2023-06-24T11:22:37;3.22;;;2.00;;
27333;SDS011;14817;57.104;-2.094;2023-06-24T11:25:05;4.28;;;2.38;;
27333;SDS011;14817;57.104;-2.094;2023-06-24T11:27:32;4.85;;;2.13;;
27333;SDS011;14817;57.104;-2.094;2023-06-24T11:30:00;3.90;;;2.00;;
27333;SDS011;14817;57.104;-2.094;2023-06-24T11:32:38;2.50;;;2.05;;
27333;SDS011;14817;57.104;-2.094;2023-06-24T11:35:10;5.70;;;3.35;;
27333;SDS011;14817;57.104;-2.094;2023-06-24T11:37:42;5.68;;;3.50;;
27333;SDS011;14817;57.104;-2.094;2023-06-24T11:40:10;4.32;;;1.95;;
27333;SDS011;14817;57.104;-2.094;2023-06-24T11:42:41;2.63;;;1.60;;
27333;SDS011;14817;57.104;-2.094;2023-06-24T11:45:11;2.38;;;1.88;;
27333;SDS011;14817;57.104;-2.094;2023-06-24T11:47:42;3.95;;;2.15;;
27333;SDS011;14817;57.104;-2.094;2023-06-24T11:50:09;3.72;;;1.80;;
27333;SDS011;14817;57.104;-2.094;2023-06-24T11:52:46;2.65;;;1.73;;
27333;SDS011;14817;57.104;-2.094;2023-06-24T11:55:19;4.57;;;2.33;;
27333;SDS011;14817;57.104;-2.094;2023-06-24T12:00:22;4.57;;;2.08;;
27333;SDS011;14817;57.104;-2.094;2023-06-24T12:02:52;3.75;;;1.67;;
27333;SDS011;14817;57.104;-2.094;2023-06-24T12:05:22;1.60;;;1.40;;
27333;SDS011;14817;57.104;-2.094;2023-06-24T12:07:56;1.90;;;1.42;;
27333;SDS011;14817;57.104;-2.094;2023-06-24T12:10:43;2.92;;;1.45;;
27333;SDS011;14817;57.104;-2.094;2023-06-24T12:13:10;2.30;;;1.73;;
27333;SDS011;14817;57.104;-2.094;2023-06-24T12:15:37;2.55;;;1.35;;
27333;SDS011;14817;57.104;-2.094;2023-06-24T12:18:04;3.08;;;1.40;;
27333;SDS011;14817;57.104;-2.094;2023-06-24T12:20:32;4.00;;;1.95;;
27333;SDS011;14817;57.104;-2.094;2023-06-24T12:23:04;4.32;;;1.23;;
27333;SDS011;14817;57.104;-2.094;2023-06-24T12:25:31;2.55;;;1.50;;
27333;SDS011;14817;57.104;-2.094;2023-06-24T12:27:59;4.57;;;1.67;;
27333;SDS011;14817;57.104;-2.094;2023-06-24T12:30:26;1.63;;;1.30;;
27333;SDS011;14817;57.104;-2.094;2023-06-24T12:32:53;1.95;;;1.30;;
27333;SDS011;14817;57.104;-2.094;2023-06-24T12:35:21;1.85;;;1.40;;
27333;SDS011;14817;57.104;-2.094;2023-06-24T12:37:52;2.35;;;1.60;;
27333;SDS011;14817;57.104;-2.094;2023-06-24T12:40:19;2.00;;;1.48;;
27333;SDS011;14817;57.104;-2.094;2023-06-24T12:42:46;2.17;;;1.65;;
27333;SDS011;14817;57.104;-2.094;2023-06-24T12:45:13;1.35;;;1.23;;
27333;SDS011;14817;57.104;-2.094;2023-06-24T12:47:40;1.50;;;1.30;;
27333;SDS011;14817;57.104;-2.094;2023-06-24T12:50:07;1.98;;;1.08;;
27333;SDS011;14817;57.104;-2.094;2023-06-24T12:52:35;1.35;;;1.10;;
27333;SDS011;14817;57.104;-2.094;2023-06-24T12:55:04;2.53;;;1.23;;
27333;SDS011;14817;57.104;-2.094;2023-06-24T12:57:33;2.25;;;1.40;;
27333;SDS011;14817;57.104;-2.094;2023-06-24T13:00:00;2.10;;;1.38;;
27333;SDS011;14817;57.104;-2.094;2023-06-24T13:02:27;1.52;;;1.30;;
27333;SDS011;14817;57.104;-2.094;2023-06-24T13:04:54;2.50;;;1.40;;
27333;SDS011;14817;57.104;-2.094;2023-06-24T13:07:20;2.17;;;1.48;;
27333;SDS011;14817;57.104;-2.094;2023-06-24T13:09:47;3.83;;;1.40;;
27333;SDS011;14817;57.104;-2.094;2023-06-24T13:12:14;4.47;;;1.83;;
27333;SDS011;14817;57.104;-2.094;2023-06-24T13:14:41;3.05;;;1.50;;
27333;SDS011;14817;57.104;-2.094;2023-06-24T13:17:08;2.00;;;1.55;;
27333;SDS011;14817;57.104;-2.094;2023-06-24T13:19:34;3.95;;;1.70;;
27333;SDS011;14817;57.104;-2.094;2023-06-24T13:22:01;4.35;;;2.08;;
27333;SDS011;14817;57.104;-2.094;2023-06-24T13:24:28;2.60;;;1.77;;
27333;SDS011;14817;57.104;-2.094;2023-06-24T13:26:56;4.20;;;2.78;;
27333;SDS011;14817;57.104;-2.094;2023-06-24T13:29:23;3.15;;;1.95;;
27333;SDS011;14817;57.104;-2.094;2023-06-24T13:31:50;4.55;;;2.05;;
27333;SDS011;14817;57.104;-2.094;2023-06-24T13:34:17;3.25;;;1.95;;
27333;SDS011;14817;57.104;-2.094;2023-06-24T13:36:44;2.20;;;1.75;;
27333;SDS011;14817;57.104;-2.094;2023-06-24T13:39:10;2.55;;;1.75;;
27333;SDS011;14817;57.104;-2.094;2023-06-24T13:41:46;4.28;;;1.90;;
27333;SDS011;14817;57.104;-2.094;2023-06-24T13:44:13;4.57;;;1.70;;
27333;SDS011;14817;57.104;-2.094;2023-06-24T13:46:40;4.22;;;1.83;;
27333;SDS011;14817;57.104;-2.094;2023-06-24T13:49:07;3.85;;;1.70;;
27333;SDS011;14817;57.104;-2.094;2023-06-24T13:51:34;3.25;;;1.73;;
27333;SDS011;14817;57.104;-2.094;2023-06-24T13:54:01;3.60;;;1.83;;
27333;SDS011;14817;57.104;-2.094;2023-06-24T13:56:28;2.92;;;1.45;;
27333;SDS011;14817;57.104;-2.094;2023-06-24T13:58:56;3.15;;;1.60;;
27333;SDS011;14817;57.104;-2.094;2023-06-24T14:01:23;4.43;;;1.60;;
27333;SDS011;14817;57.104;-2.094;2023-06-24T14:03:50;2.72;;;2.15;;
27333;SDS011;14817;57.104;-2.094;2023-06-24T14:06:19;2.03;;;1.55;;
27333;SDS011;14817;57.104;-2.094;2023-06-24T14:08:48;4.57;;;2.13;;
27333;SDS011;14817;57.104;-2.094;2023-06-24T14:11:15;5.88;;;2.33;;
27333;SDS011;14817;57.104;-2.094;2023-06-24T14:13:43;3.53;;;1.95;;
27333;SDS011;14817;57.104;-2.094;2023-06-24T14:16:10;1.98;;;1.70;;
27333;SDS011;14817;57.104;-2.094;2023-06-24T14:18:38;3.92;;;1.50;;
27333;SDS011;14817;57.104;-2.094;2023-06-24T14:21:05;2.92;;;1.90;;
27333;SDS011;14817;57.104;-2.094;2023-06-24T14:23:33;2.95;;;1.75;;
27333;SDS011;14817;57.104;-2.094;2023-06-24T14:26:00;2.72;;;1.58;;
27333;SDS011;14817;57.104;-2.094;2023-06-24T14:28:27;5.13;;;2.10;;
27333;SDS011;14817;57.104;-2.094;2023-06-24T14:30:54;3.08;;;1.80;;
27333;SDS011;14817;57.104;-2.094;2023-06-24T14:33:21;4.95;;;2.00;;
27333;SDS011;14817;57.104;-2.094;2023-06-24T14:35:48;3.25;;;1.70;;
27333;SDS011;14817;57.104;-2.094;2023-06-24T14:38:15;5.05;;;1.90;;
27333;SDS011;14817;57.104;-2.094;2023-06-24T14:40:42;2.50;;;1.70;;
27333;SDS011;14817;57.104;-2.094;2023-06-24T14:43:09;4.50;;;1.63;;
27333;SDS011;14817;57.104;-2.094;2023-06-24T14:45:36;2.38;;;1.60;;
27333;SDS011;14817;57.104;-2.094;2023-06-24T14:48:03;4.72;;;1.65;;
27333;SDS011;14817;57.104;-2.094;2023-06-24T14:50:30;5.65;;;1.98;;
27333;SDS011;14817;57.104;-2.094;2023-06-24T14:52:57;6.35;;;2.83;;
27333;SDS011;14817;57.104;-2.094;2023-06-24T14:55:24;3.90;;;1.75;;
27333;SDS011;14817;57.104;-2.094;2023-06-24T14:57:51;5.53;;;1.70;;
27333;SDS011;14817;57.104;-2.094;2023-06-24T15:00:17;3.35;;;1.42;;
27333;SDS011;14817;57.104;-2.094;2023-06-24T15:02:44;3.22;;;1.20;;
27333;SDS011;14817;57.104;-2.094;2023-06-24T15:05:11;2.88;;;1.52;;
27333;SDS011;14817;57.104;-2.094;2023-06-24T15:07:38;2.08;;;1.00;;
27333;SDS011;14817;57.104;-2.094;2023-06-24T15:10:05;1.10;;;0.80;;
27333;SDS011;14817;57.104;-2.094;2023-06-24T15:12:33;2.47;;;1.23;;
27333;SDS011;14817;57.104;-2.094;2023-06-24T15:15:01;1.50;;;1.00;;
27333;SDS011;14817;57.104;-2.094;2023-06-24T15:17:28;2.03;;;1.08;;
27333;SDS011;14817;57.104;-2.094;2023-06-24T15:19:56;6.43;;;1.65;;
27333;SDS011;14817;57.104;-2.094;2023-06-24T15:22:23;2.08;;;1.00;;
27333;SDS011;14817;57.104;-2.094;2023-06-24T15:24:50;3.10;;;1.02;;
27333;SDS011;14817;57.104;-2.094;2023-06-24T15:27:17;1.55;;;0.95;;